Portada
METAR-TAF:

METAR-TAF

Aeroports :

Frankfort, Michigan, Estats Units d'Amèrica

latitud: 44-37-30N, longitud: 086-12-02W, altitud: 193 m

Observació

L'informe es va fer fa 22 minuts, a les 12:55 UTC
Vent 14 kt del Sud/Sud-Oest amb ràfegues de 24 kt, variant entre Sud i Oest/Sud-Oest
Temperatura 8°C
Humitat 57%
Pressió 1015 hPa
Visibilitat: 16.1 km
Cel cobert a una alçada de 8000 ft

METAR: KFKS 161255Z AUTO 20014G24KT 180V240 10SM OVC080 08/00 A2996 RMK AO2 T00800000

Hora: 09:17 (13:17 UTC)


TAF: manca

Observacions i pronòstics meteorològics de més de 4000 aeroports (METAR i TAF).

Les estacions disponibles són els punts grocs i vermells al mapa.

Posi el ratolí al punt desitjat per veure el nom de l'estació.

Feu clic per veure les observacions i els pronòstics meteorològics.

Per canviar el mapa: feu clic els botons verds amb una creu de color negre per apropar; al botó verd amb un guió per allunyar la imatge; o en les fletxes verdes per a mapes adjacents.


METAR-TAF: